aviador You're here:

KNMM Decoded Metar

MERIDIAN in MS, USA
Report Time2017-05-24 16:56:00
UTC Time2017-05-24 17:52:08
Flight Rules vfr VFR
Wind310° at 15 kt
W.Decomp.*RWY 28: 13.1 kt HW 7.3 kt RCW
RWY 01: 7.3 kt HW 13.1 kt LCW
W.Rank310° ranks 8
Current wind is above 310° avg. (7.1)
Visibility9999 m
Phenomena:N/A
Clouds:Scattered 040 Hf
Broken 050 Hf
Broken 060 Hf
Expected CloudBase > 4,000 ft AGL from Temp-Dew spread
Ceiling5,000 ft
Temp21°C (ISA +7)
Dew Point11°C (53% RH)
AAT15.9°C
QNH1004 hPa
Density Alt1,575 ft
Elevation318 ft
Report Wrong Elevation
Raw Report
KNMM 241656Z 31015KT 10SM SCT040 BKN050 BKN060 21/11 A2964 RMK AO2
SLP043 T02110106 VISNO SOUTH $=

Extra information for KNMM:More info

Metar Taf Metar & Taf Last 4 Metars F.Rules Stats Wind Profile Meteogram Temp Stats Airport Information Weather charts Add Link Nearby VenuesMetar ALERT Operation Metar Decoded Social comments

AIRNAV info for KNMM